Pelican Lake, Wisconsin
Current Conditions -  °F | °C
As of 9:53 PM on Tuesday 21 Oct 2014 (Local Time) from KRHI Reporting Station
Clear Clear  
Wind Chill: 33°   Ceiling: Unl
Heat Index: 33°   Visibility: 10mi
Dew Point: 32°   Wind: 3mph
Humidity: 96%   Direction: 120°ESE
Pressure: 30.26"   Gusts: NA
Location:  45.5°N, 89.17°W
Report Text: KRHI 220253Z AUTO 12003KT 10SM CLR 01/00 A3026 RMK AO2 SLP267 T00060000 53010
Loading
Personal Weather Stations






























Interactive Weather Map
Tropical Storm Tracking
New forecast layout! Learn more

10-Day Weather Forecast

Advertisements
Track Severe Weather on mobile